Goessel, Kansas
Current Conditions -  °F | °C
As of 8:35 AM on Friday 24 Oct 2014 (Local Time) from KEWK Reporting Station
Clear Clear  
Wind Chill: 57°   Ceiling: Unl
Heat Index: 57°   Visibility: 3mi
Dew Point: 54°   Wind: 10mph
Humidity: 88%   Direction: 190°S
Pressure: 30.07"   Gusts: NA
Location:  38.25°N, 97.35°W
Report Text: KEWK 241335Z AUTO 19009KT 3SM CLR 14/12 A3007 RMK AO1
Loading
Personal Weather Stations






























Interactive Weather Map New forecast layout! Learn more

10-Day Weather Forecast

Advertisements
Track Severe Weather on mobile